Details From EDDB - Berlin Schoenefeld
To TNCM - St Maarten - Princess Juliana Intl
Flight Number -
Tags Generated
Created
Modified
Stats Distance 4,066 nm / 7,530 km
Max Altitude 0 ft / 0 m
Waypoints 6
Social Downloads 0
Likes 0
Share VATSIM

Download

Looking for another format? Having issues loading an existing format? Contact us
Advertisement - Login to hide

Notes

Generated

Route

EDDB TWN04 RATLO ELRAG MNOLO TNCM

ID Type Via Altitude Latitude Longitude Leg Dist Tot Dist Heading (true) Name
O EDDB APT - 0 ft / 0 m 52.38012˚ 13.51714˚ - 0 nm - Berlin Schoenefeld
TWN04 FIX - 0 ft / 0 m 52.30242˚ 6.99009˚ 239 nm 239 nm 271° / 266° -
RATLO FIX - 0 ft / 0 m 51.99139˚ 1.68194˚ 196 nm 435 nm 267° / 262° -
ELRAG FIX - 0 ft / 0 m 51.17444˚ -5.10583˚ 257 nm 693 nm 262° / 256° -
MNOLO FIX - 0 ft / 0 m 18.34556˚ -62.80211˚ 3346 nm 4040 nm 256° / 220° -
O TNCM APT - 0 ft / 0 m 18.03937˚ -63.11961˚ 25 nm 4066 nm 225° / 225° -

Altitude Profile

Advertisement - Login to hide

Weather


0- 5 10 15 20 25 30 35+ Temperature / ° C

Clouds and Precipitation
Forecast for 2017-12-16 18:00 UTC. Updated 2 hours ago

Ground ~20,000 ft ~40,000 ft Winds

EDDB

Details ICAO EDDB (BER)
Name Berlin Schoenefeld
Region Germany - Civil
Timezone Europe/Berlin (UTC+1.0)
Stats Elevation 157 ft / 48 m (AMSL)
Location 52.378541° 13.520629°
Runways 2
Magnetic Variation 3.808° E

METAR

EDDB 161450Z 26007KT 6000 -DZ BKN007 02/01 Q1007 TEMPO 3000 -DZ BR

Decode

TAF

TAF TAF EDDB 161100Z 1612/1712 26009KT 8000 BKN013 TEMPO 1612/1624 BKN008 PROB30 TEMPO 1615/1624 3500 -SNRA BECMG 1700/1702 BKN007 TEMPO 1700/1710 2000 -SN BKN004 BECMG 1710/1712 BKN012

Decode

Departure Runways

ID Width Length Bearing (true) Bearing (mag) Surface Threshold Offset Overrun Length
07 148 ft / 45 m 9,817 ft / 2,992 m 68.75° 64.94° Asphalt 0 ft / 0 m 984 ft / 300 m
07L 148 ft / 45 m 8,867 ft / 2,703 m 68.77° 64.96° Concrete 0 ft / 0 m 525 ft / 160 m
25 148 ft / 45 m 9,817 ft / 2,992 m 248.78° 244.97° Asphalt 0 ft / 0 m 984 ft / 300 m
25R 148 ft / 45 m 8,867 ft / 2,703 m 248.80° 244.99° Concrete 0 ft / 0 m 984 ft / 300 m

TNCM

Details ICAO TNCM (SXM)
Name St Maarten - Princess Juliana Intl
Region Caribbean Netherlands, Aruba, Curaçao, Sint Maarten
Timezone Unknown (UTC+0.0)
Stats Elevation 12 ft / 4 m (AMSL)
Location 18.040889° -63.108974°
Runways 1
Magnetic Variation 14.325° W

METAR

TNCM 161500Z 06012KT 010V100 9999 BKN018 29/22 Q1019 A3009 NOSIG

Decode

TAF

TAF TNCM 161129Z 1612/1712 06011KT P6SM VCSH SCT018 SCT035 FM161450 08017KT P6SM SCT024 FM162300 07012KT P6SM VCSH FEW018 SCT040

Decode

Destination Runways

ID Width Length Bearing (true) Bearing (mag) Surface Threshold Offset Overrun Length
10 148 ft / 45 m 7,464 ft / 2,275 m 81.43° 95.76° Asphalt 0 ft / 0 m 151 ft / 46 m
28 148 ft / 45 m 7,464 ft / 2,275 m 261.44° 275.77° Asphalt 397 ft / 121 m 0 ft / 0 m

Popular Alternatives